createdAt,value
2023-12-17T00:01:17.111Z,19.97
2023-12-17T00:03:45.115Z,19.55
2023-12-17T00:06:12.793Z,19.83
2023-12-17T00:08:39.732Z,19.19
2023-12-17T00:11:06.763Z,19.35
2023-12-17T00:13:35.886Z,19.24
2023-12-17T00:16:03.350Z,19.48
2023-12-17T00:18:30.215Z,19.14
2023-12-17T00:20:57.291Z,19.17
2023-12-17T00:23:24.064Z,19.33
2023-12-17T00:25:50.983Z,19.13
2023-12-17T00:28:17.784Z,18.91
2023-12-17T00:30:47.370Z,19.11
2023-12-17T00:33:14.729Z,18.94
2023-12-17T00:35:41.486Z,18.84
2023-12-17T00:38:08.323Z,18.96
2023-12-17T00:40:35.032Z,18.84
2023-12-17T00:43:02.288Z,18.65
2023-12-17T00:45:29.647Z,18.63
2023-12-17T00:47:58.418Z,18.69
2023-12-17T00:50:25.854Z,18.92
2023-12-17T00:52:52.655Z,18.84
2023-12-17T00:55:20.205Z,18.99
2023-12-17T00:57:47.497Z,18.50
2023-12-17T01:00:15.785Z,18.86
2023-12-17T01:02:46.304Z,18.82
2023-12-17T01:05:15.206Z,18.66
2023-12-17T01:07:42.895Z,18.37
2023-12-17T01:10:10.427Z,18.27
2023-12-17T01:12:37.147Z,18.42
2023-12-17T01:15:05.205Z,18.33
2023-12-17T01:17:32.786Z,17.80
2023-12-17T01:20:00.548Z,17.34
2023-12-17T01:22:31.293Z,17.59
2023-12-17T01:24:59.567Z,17.53
2023-12-17T01:27:26.990Z,17.36
2023-12-17T01:29:54.448Z,17.39
2023-12-17T01:32:21.181Z,17.98
2023-12-17T01:34:47.887Z,17.86
2023-12-17T01:37:14.554Z,17.94
2023-12-17T01:39:42.581Z,17.93
2023-12-17T01:42:10.075Z,18.47
2023-12-17T01:44:36.885Z,17.86
2023-12-17T01:47:06.882Z,18.23
2023-12-17T01:49:34.709Z,18.29
2023-12-17T01:52:02.383Z,18.08
2023-12-17T01:54:29.883Z,18.73
2023-12-17T01:56:58.933Z,18.98
2023-12-17T01:59:26.522Z,18.63
2023-12-17T02:01:54.471Z,18.94
2023-12-17T02:04:22.311Z,19.02
2023-12-17T02:06:49.183Z,19.34
2023-12-17T02:09:16.432Z,19.28
2023-12-17T02:11:43.157Z,19.37
2023-12-17T02:14:11.472Z,19.49
2023-12-17T02:16:38.555Z,19.47
2023-12-17T02:19:19.600Z,19.55
2023-12-17T02:21:54.704Z,19.42
2023-12-17T02:24:29.368Z,19.46
2023-12-17T02:26:56.176Z,19.50
2023-12-17T02:29:26.560Z,19.51
2023-12-17T02:31:57.508Z,19.40
2023-12-17T02:34:24.696Z,19.44
2023-12-17T02:36:51.668Z,19.45
2023-12-17T02:39:22.467Z,19.39
2023-12-17T02:41:54.711Z,19.48
2023-12-17T02:50:43.530Z,19.39
2023-12-17T02:53:11.020Z,19.47
2023-12-17T02:55:38.874Z,19.52
2023-12-17T02:58:07.511Z,19.61
2023-12-17T03:00:34.372Z,19.54
2023-12-17T03:03:01.771Z,19.51
2023-12-17T03:05:28.552Z,19.64
2023-12-17T03:07:56.119Z,19.70
2023-12-17T03:10:22.963Z,19.50
2023-12-17T03:12:49.702Z,19.20
2023-12-17T03:15:18.028Z,19.36
2023-12-17T03:18:08.648Z,19.29
2023-12-17T03:21:15.468Z,19.38
2023-12-17T03:23:42.298Z,19.41
2023-12-17T03:26:09.089Z,19.38
2023-12-17T03:28:36.692Z,18.97
2023-12-17T03:31:05.106Z,19.22
2023-12-17T03:33:32.165Z,19.12
2023-12-17T03:35:58.964Z,19.14
2023-12-17T03:38:25.653Z,19.12
2023-12-17T03:40:52.445Z,19.15
2023-12-17T03:43:19.931Z,18.94
2023-12-17T03:45:47.459Z,19.00
2023-12-17T03:48:16.449Z,18.94
2023-12-17T03:50:46.726Z,18.44
2023-12-17T03:53:16.966Z,19.13
2023-12-17T03:55:44.297Z,19.25
2023-12-17T03:58:11.648Z,19.28
2023-12-17T04:00:38.947Z,19.21
2023-12-17T04:03:06.243Z,18.98
2023-12-17T04:05:37.497Z,19.19
2023-12-17T04:08:08.166Z,19.38
2023-12-17T04:10:35.090Z,19.12
2023-12-17T04:13:01.845Z,19.22
2023-12-17T04:15:28.720Z,19.31
2023-12-17T04:17:55.830Z,19.27
2023-12-17T04:20:22.683Z,19.06
2023-12-17T04:22:50.983Z,19.06
2023-12-17T04:25:17.635Z,18.81
2023-12-17T04:27:44.640Z,18.99
2023-12-17T04:30:13.109Z,18.74
2023-12-17T04:32:39.971Z,18.76
2023-12-17T04:35:07.381Z,18.89
2023-12-17T04:37:34.580Z,18.97
2023-12-17T04:40:02.723Z,18.65
2023-12-17T04:42:31.045Z,18.67
2023-12-17T04:44:59.435Z,18.51
2023-12-17T04:47:26.207Z,18.90
2023-12-17T04:49:52.854Z,18.76
2023-12-17T04:52:22.195Z,18.57
2023-12-17T04:54:48.813Z,18.91
2023-12-17T04:57:17.274Z,18.66
2023-12-17T04:59:44.226Z,19.22
2023-12-17T05:02:10.875Z,18.76
2023-12-17T05:04:37.628Z,18.58
2023-12-17T05:07:04.778Z,18.77
2023-12-17T05:09:31.452Z,18.77
2023-12-17T05:11:58.167Z,18.86
2023-12-17T05:14:26.324Z,18.70
2023-12-17T05:16:53.583Z,18.59
2023-12-17T05:19:31.612Z,18.66
2023-12-17T05:21:58.902Z,18.34
2023-12-17T05:24:26.498Z,18.58
2023-12-17T05:26:56.264Z,18.61
2023-12-17T05:29:23.705Z,18.83
2023-12-17T05:31:54.991Z,18.42
2023-12-17T05:34:23.382Z,18.87
2023-12-17T05:36:50.914Z,18.80
2023-12-17T05:39:18.368Z,19.14
2023-12-17T05:41:46.325Z,18.83
2023-12-17T05:44:14.106Z,18.86
2023-12-17T05:46:41.697Z,18.61
2023-12-17T05:49:10.606Z,18.44
2023-12-17T05:51:37.928Z,18.48
2023-12-17T05:54:05.140Z,18.26
2023-12-17T05:56:32.746Z,18.32
2023-12-17T05:59:00.204Z,18.33
2023-12-17T06:01:27.545Z,18.33
2023-12-17T06:03:55.130Z,18.96
2023-12-17T06:08:53.932Z,18.79
2023-12-17T06:11:23.580Z,18.88
2023-12-17T06:13:51.021Z,18.72
2023-12-17T06:16:18.311Z,19.06
2023-12-17T06:18:45.912Z,18.93
2023-12-17T06:21:24.354Z,18.99
2023-12-17T06:23:52.324Z,18.52
2023-12-17T06:26:20.116Z,19.06
2023-12-17T06:28:47.381Z,19.29
2023-12-17T06:31:18.200Z,19.10
2023-12-17T06:33:45.686Z,19.10
2023-12-17T06:36:13.817Z,18.75
2023-12-17T06:38:42.757Z,19.09
2023-12-17T06:41:10.052Z,19.31
2023-12-17T06:43:38.494Z,18.98
2023-12-17T06:46:08.422Z,19.04
2023-12-17T06:48:35.345Z,18.91
2023-12-17T06:51:03.469Z,18.75
2023-12-17T06:53:31.096Z,18.58
2023-12-17T06:55:59.754Z,18.82
2023-12-17T06:58:26.729Z,18.65
2023-12-17T07:00:54.020Z,18.98
2023-12-17T07:03:21.379Z,18.54
2023-12-17T07:05:49.030Z,18.76
2023-12-17T07:08:16.514Z,18.59
2023-12-17T07:10:43.714Z,18.38
2023-12-17T07:13:15.730Z,18.40
2023-12-17T07:15:42.963Z,18.52
2023-12-17T07:18:10.502Z,18.36
2023-12-17T07:20:37.764Z,18.27
2023-12-17T07:23:04.991Z,18.40
2023-12-17T07:25:32.632Z,18.26
2023-12-17T07:28:00.084Z,18.16
2023-12-17T07:30:32.281Z,18.71
2023-12-17T07:32:59.908Z,17.95
2023-12-17T07:35:27.443Z,18.12
2023-12-17T07:37:54.718Z,18.15
2023-12-17T07:40:22.225Z,17.99
2023-12-17T07:42:49.634Z,17.90
2023-12-17T07:45:17.001Z,18.03
2023-12-17T07:47:46.810Z,18.62
2023-12-17T07:50:17.554Z,18.32
2023-12-17T07:52:44.958Z,18.06
2023-12-17T07:55:12.191Z,18.12
2023-12-17T07:57:40.117Z,17.94
2023-12-17T08:00:08.071Z,17.90
2023-12-17T08:02:35.329Z,18.17
2023-12-17T08:05:04.756Z,18.51
2023-12-17T08:07:32.200Z,17.77
2023-12-17T08:09:59.083Z,18.03
2023-12-17T08:12:26.753Z,18.63
2023-12-17T08:14:54.150Z,18.03
2023-12-17T08:17:21.345Z,18.46
2023-12-17T08:19:48.523Z,18.20
2023-12-17T08:22:20.185Z,18.21
2023-12-17T08:24:47.475Z,17.61
2023-12-17T08:27:14.863Z,18.16
2023-12-17T08:29:42.492Z,18.54
2023-12-17T08:32:10.352Z,18.39
2023-12-17T08:34:37.622Z,18.28
2023-12-17T08:37:05.197Z,17.80
2023-12-17T08:39:39.675Z,18.52
2023-12-17T08:42:07.638Z,18.66
2023-12-17T08:44:35.460Z,18.28
2023-12-17T08:47:02.614Z,18.84
2023-12-17T08:49:30.130Z,18.63
2023-12-17T08:51:57.444Z,18.81
2023-12-17T08:54:24.773Z,18.52
2023-12-17T08:56:53.898Z,18.74
2023-12-17T08:59:21.606Z,18.86
2023-12-17T09:01:48.966Z,18.74
2023-12-17T09:04:16.344Z,18.84
2023-12-17T09:06:43.795Z,18.34
2023-12-17T09:09:11.548Z,18.72
2023-12-17T09:11:38.715Z,18.78
2023-12-17T09:14:07.572Z,18.66
2023-12-17T09:16:35.754Z,19.03
2023-12-17T09:19:03.370Z,18.72
2023-12-17T09:21:30.970Z,18.84
2023-12-17T09:23:58.561Z,18.38
2023-12-17T09:26:26.184Z,18.99
2023-12-17T09:28:53.422Z,18.99
2023-12-17T09:31:22.846Z,18.98
2023-12-17T09:33:50.398Z,19.01
2023-12-17T09:36:17.767Z,19.29
2023-12-17T09:38:45.396Z,19.47
2023-12-17T09:41:12.809Z,18.47
2023-12-17T09:43:43.566Z,19.62
2023-12-17T09:46:11.188Z,19.45
2023-12-17T09:48:39.985Z,19.21
2023-12-17T09:51:09.158Z,18.60
2023-12-17T09:53:40.230Z,18.64
2023-12-17T09:56:08.980Z,19.14
2023-12-17T09:58:35.695Z,19.48
2023-12-17T10:01:03.281Z,19.26
2023-12-17T10:03:31.479Z,18.89
2023-12-17T10:06:00.654Z,19.22
2023-12-17T10:08:28.157Z,19.37
2023-12-17T10:10:58.461Z,19.65
2023-12-17T10:13:25.729Z,18.81
2023-12-17T10:15:57.972Z,19.44
2023-12-17T10:18:25.537Z,19.27
2023-12-17T10:20:52.862Z,19.23
2023-12-17T10:23:21.600Z,19.74
2023-12-17T10:25:59.546Z,19.08
2023-12-17T10:28:26.941Z,19.80
2023-12-17T10:30:54.863Z,19.44
2023-12-17T10:33:27.293Z,19.53
2023-12-17T10:35:55.528Z,19.30
2023-12-17T10:38:24.896Z,19.30
2023-12-17T10:40:52.520Z,19.49
2023-12-17T10:43:20.955Z,19.73
2023-12-17T10:45:50.225Z,19.51
2023-12-17T10:48:21.316Z,19.14
2023-12-17T10:50:49.997Z,19.54
2023-12-17T10:53:16.764Z,20.17
2023-12-17T10:55:44.929Z,19.54
2023-12-17T10:58:20.824Z,19.49
2023-12-17T11:00:47.933Z,19.37
2023-12-17T11:03:15.580Z,18.87
2023-12-17T11:05:55.287Z,18.52
2023-12-17T11:08:23.711Z,19.29
2023-12-17T11:10:54.692Z,19.71
2023-12-17T11:13:21.901Z,18.98
2023-12-17T11:15:48.646Z,19.42
2023-12-17T11:18:16.312Z,18.96
2023-12-17T11:20:43.956Z,19.14
2023-12-17T11:23:11.610Z,19.25
2023-12-17T11:25:40.423Z,19.36
2023-12-17T11:28:09.265Z,19.53
2023-12-17T11:30:36.877Z,19.18
2023-12-17T11:33:04.298Z,19.14
2023-12-17T11:35:32.026Z,19.27
2023-12-17T11:37:59.394Z,19.75
2023-12-17T11:40:28.468Z,19.76
2023-12-17T11:43:02.937Z,19.23
2023-12-17T11:45:36.072Z,19.57
2023-12-17T11:48:10.612Z,20.11
2023-12-17T11:50:45.512Z,19.28
2023-12-17T11:53:14.719Z,19.07
2023-12-17T11:55:46.448Z,18.87
2023-12-17T11:58:14.196Z,19.37
2023-12-17T12:00:42.957Z,19.64
2023-12-17T12:03:10.360Z,19.19
2023-12-17T12:05:37.775Z,19.77
2023-12-17T12:08:05.748Z,19.77
2023-12-17T12:10:33.307Z,19.53
2023-12-17T12:13:04.018Z,19.01
2023-12-17T12:15:30.838Z,19.21
2023-12-17T12:17:59.969Z,19.33
2023-12-17T12:20:37.222Z,19.47
2023-12-17T12:23:09.933Z,19.56
2023-12-17T12:25:37.351Z,18.79
2023-12-17T12:28:04.139Z,18.79
2023-12-17T12:30:31.989Z,19.04
2023-12-17T12:33:11.485Z,18.94
2023-12-17T12:35:38.887Z,18.57
2023-12-17T12:38:21.205Z,19.45
2023-12-17T12:40:49.213Z,19.61
2023-12-17T12:43:16.635Z,19.73
2023-12-17T12:45:44.385Z,19.27
2023-12-17T12:48:24.637Z,19.24
2023-12-17T12:50:52.853Z,19.54
2023-12-17T12:53:26.191Z,19.31
2023-12-17T12:55:55.075Z,19.75
2023-12-17T12:58:22.293Z,19.69
2023-12-17T13:00:50.168Z,19.06
2023-12-17T13:03:17.806Z,18.89
2023-12-17T13:05:46.528Z,19.59
2023-12-17T13:08:13.296Z,19.48
2023-12-17T13:10:40.175Z,19.68
2023-12-17T13:13:07.274Z,19.53
2023-12-17T13:15:35.442Z,19.68
2023-12-17T13:18:02.902Z,19.20
2023-12-17T13:20:29.762Z,19.58
2023-12-17T13:22:58.070Z,19.56
2023-12-17T13:25:24.925Z,19.80
2023-12-17T13:27:51.625Z,19.47
2023-12-17T13:30:18.736Z,19.81
2023-12-17T13:32:46.135Z,19.72
2023-12-17T13:35:13.183Z,19.79
2023-12-17T13:37:40.057Z,19.34
2023-12-17T13:40:14.409Z,19.46
2023-12-17T13:42:41.446Z,19.94
2023-12-17T13:45:11.281Z,19.85
2023-12-17T13:47:38.915Z,19.85
2023-12-17T13:50:07.220Z,19.95
2023-12-17T13:52:34.743Z,20.41
2023-12-17T13:55:02.015Z,20.10
2023-12-17T13:57:30.798Z,19.95
2023-12-17T13:59:58.445Z,20.63
2023-12-17T14:02:25.843Z,20.16
2023-12-17T14:04:53.261Z,20.04
2023-12-17T14:07:21.208Z,20.44
2023-12-17T14:09:48.371Z,20.47
2023-12-17T14:12:15.885Z,20.73
2023-12-17T14:14:44.566Z,20.15
2023-12-17T14:17:11.923Z,20.36
2023-12-17T14:19:39.249Z,20.10
2023-12-17T14:22:06.609Z,20.41
2023-12-17T14:24:34.595Z,19.63
2023-12-17T14:27:01.663Z,20.07
2023-12-17T14:29:29.698Z,20.01
2023-12-17T14:31:58.174Z,20.24
2023-12-17T14:34:28.191Z,20.31
2023-12-17T14:36:55.472Z,19.94
2023-12-17T14:39:22.820Z,19.82
2023-12-17T14:41:50.466Z,19.59
2023-12-17T14:44:17.741Z,19.54
2023-12-17T14:46:45.043Z,19.19
2023-12-17T14:49:13.959Z,19.60
2023-12-17T14:51:41.641Z,19.96
2023-12-17T14:54:09.145Z,19.35
2023-12-17T14:56:36.993Z,19.10
2023-12-17T14:59:04.003Z,19.70
2023-12-17T15:01:35.118Z,19.61
2023-12-17T15:04:04.747Z,19.68
2023-12-17T15:06:34.093Z,19.73
2023-12-17T15:09:01.813Z,19.70
2023-12-17T15:11:29.823Z,19.30
2023-12-17T15:13:57.317Z,19.13
2023-12-17T15:16:24.738Z,19.11
2023-12-17T15:18:52.067Z,18.93
2023-12-17T15:21:19.529Z,18.99
2023-12-17T15:23:48.859Z,19.11
2023-12-17T15:26:16.124Z,18.87
2023-12-17T15:28:45.596Z,18.59
2023-12-17T15:31:19.222Z,19.11
2023-12-17T15:33:49.834Z,19.15
2023-12-17T15:36:20.418Z,18.90
2023-12-17T15:38:49.349Z,19.27
2023-12-17T15:41:19.852Z,19.26
2023-12-17T15:43:47.392Z,19.11
2023-12-17T15:46:21.901Z,18.44
2023-12-17T15:48:49.507Z,18.87
2023-12-17T15:51:18.616Z,19.02
2023-12-17T15:53:46.121Z,18.76
2023-12-17T15:56:14.873Z,19.07
2023-12-17T15:58:41.705Z,18.92
2023-12-17T16:01:09.083Z,19.52
2023-12-17T16:03:38.406Z,18.74
2023-12-17T16:06:09.045Z,18.81
2023-12-17T16:08:35.745Z,19.16
2023-12-17T16:11:03.035Z,19.34
2023-12-17T16:13:31.449Z,19.07
2023-12-17T16:15:58.679Z,19.04
2023-12-17T16:18:26.427Z,19.18
2023-12-17T16:20:54.167Z,19.05
2023-12-17T16:23:21.515Z,19.28
2023-12-17T16:25:48.462Z,19.39
2023-12-17T16:28:15.208Z,19.60
2023-12-17T16:30:44.672Z,18.88
2023-12-17T16:33:12.686Z,19.50
2023-12-17T16:35:40.271Z,19.62
2023-12-17T16:38:07.499Z,19.25
2023-12-17T16:40:34.488Z,19.34
2023-12-17T16:43:04.600Z,19.06
2023-12-17T16:45:31.570Z,18.96
2023-12-17T16:47:59.833Z,19.64
2023-12-17T16:50:26.732Z,19.48
2023-12-17T16:52:53.529Z,19.41
2023-12-17T16:55:20.541Z,19.19
2023-12-17T16:57:47.621Z,19.37
2023-12-17T17:00:15.691Z,19.77
2023-12-17T17:02:42.784Z,19.19
2023-12-17T17:05:12.156Z,19.80
2023-12-17T17:07:38.870Z,20.04
2023-12-17T17:10:06.711Z,20.19
2023-12-17T17:12:33.399Z,19.74
2023-12-17T17:15:00.924Z,20.43
2023-12-17T17:17:28.456Z,20.42
2023-12-17T17:19:56.304Z,20.28
2023-12-17T17:22:25.437Z,20.70
2023-12-17T17:24:52.210Z,20.41
2023-12-17T17:27:18.960Z,20.75
2023-12-17T17:29:45.964Z,20.83
2023-12-17T17:32:13.640Z,20.39
2023-12-17T17:34:40.987Z,20.54
2023-12-17T17:37:08.251Z,20.53
2023-12-17T17:39:36.569Z,20.69
2023-12-17T17:42:03.615Z,20.74
2023-12-17T17:44:30.513Z,20.86
2023-12-17T17:46:57.190Z,20.77
2023-12-17T17:49:24.464Z,20.57
2023-12-17T17:51:51.537Z,20.78
2023-12-17T17:54:19.152Z,20.50
2023-12-17T17:56:49.654Z,20.50
2023-12-17T17:59:16.487Z,20.59
2023-12-17T18:01:43.261Z,20.23
2023-12-17T18:04:09.956Z,20.63
2023-12-17T18:06:36.784Z,20.54
2023-12-17T18:09:03.988Z,20.38
2023-12-17T18:11:30.745Z,20.60
2023-12-17T18:13:58.814Z,20.46
2023-12-17T18:16:25.773Z,20.64
2023-12-17T18:18:52.570Z,20.44
2023-12-17T18:21:19.896Z,20.43
2023-12-17T18:23:48.122Z,20.43
2023-12-17T18:26:21.315Z,20.30
2023-12-17T18:28:48.129Z,20.13
2023-12-17T18:31:16.326Z,20.02
2023-12-17T18:33:43.562Z,19.80
2023-12-17T18:36:10.634Z,20.42
2023-12-17T18:38:37.275Z,19.91
2023-12-17T18:41:04.229Z,19.99
2023-12-17T18:43:30.966Z,20.17
2023-12-17T18:45:57.660Z,20.39
2023-12-17T18:48:25.955Z,19.71
2023-12-17T18:50:52.763Z,20.46
2023-12-17T18:53:19.610Z,20.40
2023-12-17T18:55:46.373Z,20.25
2023-12-17T18:58:13.041Z,19.59
2023-12-17T19:00:39.787Z,19.40
2023-12-17T19:03:06.610Z,19.75
2023-12-17T19:05:34.872Z,19.76
2023-12-17T19:08:01.591Z,19.47
2023-12-17T19:10:28.559Z,18.63
2023-12-17T19:12:55.194Z,19.54
2023-12-17T19:15:21.954Z,19.35
2023-12-17T19:17:48.863Z,19.53
2023-12-17T19:20:15.852Z,19.80
2023-12-17T19:22:44.381Z,19.73
2023-12-17T19:25:11.565Z,19.49
2023-12-17T19:27:38.526Z,19.41
2023-12-17T19:30:06.414Z,19.59
2023-12-17T19:32:33.317Z,19.42
2023-12-17T19:35:00.073Z,19.71
2023-12-17T19:37:27.383Z,19.15
2023-12-17T19:39:55.436Z,19.56
2023-12-17T19:42:22.703Z,19.64
2023-12-17T19:44:50.002Z,19.19
2023-12-17T19:47:16.700Z,19.14
2023-12-17T19:49:44.494Z,18.90
2023-12-17T19:52:11.834Z,19.68
2023-12-17T19:54:39.737Z,19.87
2023-12-17T19:57:09.342Z,19.18
2023-12-17T19:59:36.673Z,19.04
2023-12-17T20:02:03.413Z,19.26
2023-12-17T20:04:30.309Z,19.45
2023-12-17T20:06:57.433Z,19.45
2023-12-17T20:09:24.810Z,19.52
2023-12-17T20:11:52.225Z,19.53
2023-12-17T20:14:20.836Z,19.40
2023-12-17T20:16:49.921Z,19.79
2023-12-17T20:19:17.460Z,19.39
2023-12-17T20:21:44.695Z,19.13
2023-12-17T20:24:12.595Z,19.54
2023-12-17T20:26:39.690Z,20.02
2023-12-17T20:29:08.436Z,19.74
2023-12-17T20:31:37.221Z,19.36
2023-12-17T20:34:04.034Z,19.96
2023-12-17T20:36:31.429Z,19.51
2023-12-17T20:38:58.867Z,19.56
2023-12-17T20:41:26.723Z,19.54
2023-12-17T20:43:54.314Z,19.66
2023-12-17T20:46:21.876Z,19.59
2023-12-17T20:48:51.151Z,19.84
2023-12-17T20:51:20.794Z,19.86
2023-12-17T20:53:50.545Z,19.53
2023-12-17T20:56:18.106Z,19.72
2023-12-17T20:58:45.157Z,19.68
2023-12-17T21:01:12.418Z,19.48
2023-12-17T21:03:40.007Z,19.78
2023-12-17T21:06:11.775Z,19.86
2023-12-17T21:08:38.830Z,20.18
2023-12-17T21:11:05.643Z,20.21
2023-12-17T21:13:32.522Z,20.40
2023-12-17T21:15:59.788Z,20.31
2023-12-17T21:18:27.440Z,20.25
2023-12-17T21:20:54.711Z,20.53
2023-12-17T21:23:23.306Z,20.47
2023-12-17T21:25:51.069Z,20.66
2023-12-17T21:28:18.252Z,20.70
2023-12-17T21:30:45.485Z,20.42
2023-12-17T21:33:13.176Z,20.34
2023-12-17T21:35:40.443Z,20.36
2023-12-17T21:38:07.613Z,20.38
2023-12-17T21:40:38.926Z,20.54
2023-12-17T21:43:06.108Z,20.57
2023-12-17T21:45:33.326Z,20.80
2023-12-17T21:48:03.537Z,20.70
2023-12-17T21:50:30.262Z,20.39
2023-12-17T21:52:57.602Z,20.09
2023-12-17T21:55:25.582Z,20.09
2023-12-17T21:57:54.542Z,20.40
2023-12-17T22:00:21.301Z,20.70
2023-12-17T22:02:48.793Z,20.28
2023-12-17T22:05:22.572Z,20.30
2023-12-17T22:07:50.123Z,20.50
2023-12-17T22:10:17.512Z,20.05
2023-12-17T22:12:45.579Z,20.09
2023-12-17T22:15:14.411Z,19.87
2023-12-17T22:17:42.400Z,20.49
2023-12-17T22:20:11.262Z,20.17
2023-12-17T22:22:38.538Z,20.32
2023-12-17T22:25:06.872Z,20.26
2023-12-17T22:27:34.524Z,20.34
2023-12-17T22:30:01.860Z,20.76
2023-12-17T22:32:30.847Z,20.66
2023-12-17T22:34:58.576Z,20.80
2023-12-17T22:37:28.688Z,20.68
2023-12-17T22:39:55.926Z,20.17
2023-12-17T22:42:23.176Z,20.46
2023-12-17T22:44:50.721Z,20.58
2023-12-17T22:47:17.953Z,20.37
2023-12-17T22:49:47.832Z,20.03
2023-12-17T22:52:14.635Z,20.32
2023-12-17T22:54:42.073Z,20.21
2023-12-17T22:57:09.790Z,20.11
2023-12-17T22:59:39.176Z,20.45
2023-12-17T23:02:06.605Z,20.49
2023-12-17T23:04:34.185Z,20.71
2023-12-17T23:07:02.943Z,20.90
2023-12-17T23:09:30.046Z,20.80
2023-12-17T23:11:57.798Z,20.51
2023-12-17T23:14:25.097Z,20.65
2023-12-17T23:16:52.348Z,20.66
2023-12-17T23:19:20.093Z,20.43
2023-12-17T23:21:47.632Z,20.91
2023-12-17T23:24:16.529Z,20.65
2023-12-17T23:26:43.215Z,20.92
2023-12-17T23:29:09.884Z,20.11
2023-12-17T23:31:37.135Z,20.29
2023-12-17T23:34:04.666Z,20.32
2023-12-17T23:36:32.142Z,20.00
2023-12-17T23:38:59.868Z,20.31
2023-12-17T23:41:29.126Z,20.62
2023-12-17T23:43:56.446Z,20.36
2023-12-17T23:46:23.774Z,20.27
2023-12-17T23:48:51.351Z,20.13
2023-12-17T23:51:21.666Z,20.45
2023-12-17T23:53:49.134Z,20.77
2023-12-17T23:56:16.787Z,20.75
2023-12-17T23:58:45.913Z,20.67
